sensor_id;sensor_type;location;lat;lon;timestamp;P1;durP1;ratioP1;P2;durP2;ratioP2
5167;SDS011;2603;48.918;8.980;2023-05-15T00:00:58;8.53;;;4.60;;
5167;SDS011;2603;48.918;8.980;2023-05-15T00:03:25;19.93;;;4.33;;
5167;SDS011;2603;48.918;8.980;2023-05-15T00:05:52;8.80;;;4.10;;
5167;SDS011;2603;48.918;8.980;2023-05-15T00:08:19;4.87;;;3.60;;
5167;SDS011;2603;48.918;8.980;2023-05-15T00:10:45;6.23;;;4.53;;
5167;SDS011;2603;48.918;8.980;2023-05-15T00:13:12;7.63;;;3.87;;
5167;SDS011;2603;48.918;8.980;2023-05-15T00:15:39;11.43;;;4.57;;
5167;SDS011;2603;48.918;8.980;2023-05-15T00:18:06;8.10;;;4.63;;
5167;SDS011;2603;48.918;8.980;2023-05-15T00:20:32;13.83;;;5.77;;
5167;SDS011;2603;48.918;8.980;2023-05-15T00:22:59;8.93;;;4.70;;
5167;SDS011;2603;48.918;8.980;2023-05-15T00:25:26;6.27;;;4.67;;
5167;SDS011;2603;48.918;8.980;2023-05-15T00:27:52;5.37;;;3.27;;
5167;SDS011;2603;48.918;8.980;2023-05-15T00:30:19;7.20;;;4.40;;
5167;SDS011;2603;48.918;8.980;2023-05-15T00:32:47;5.93;;;4.00;;
5167;SDS011;2603;48.918;8.980;2023-05-15T00:35:16;7.67;;;4.43;;
5167;SDS011;2603;48.918;8.980;2023-05-15T00:37:42;7.37;;;4.00;;
5167;SDS011;2603;48.918;8.980;2023-05-15T00:40:10;6.63;;;4.70;;
5167;SDS011;2603;48.918;8.980;2023-05-15T00:42:38;11.93;;;4.43;;
5167;SDS011;2603;48.918;8.980;2023-05-15T00:45:05;7.93;;;4.70;;
5167;SDS011;2603;48.918;8.980;2023-05-15T00:47:35;6.00;;;4.10;;
5167;SDS011;2603;48.918;8.980;2023-05-15T00:50:05;7.60;;;4.17;;
5167;SDS011;2603;48.918;8.980;2023-05-15T00:52:33;5.97;;;4.07;;
5167;SDS011;2603;48.918;8.980;2023-05-15T00:55:01;6.17;;;4.60;;
5167;SDS011;2603;48.918;8.980;2023-05-15T00:57:29;9.13;;;4.50;;
5167;SDS011;2603;48.918;8.980;2023-05-15T00:59:56;6.57;;;4.60;;
5167;SDS011;2603;48.918;8.980;2023-05-15T01:02:23;6.80;;;4.50;;
5167;SDS011;2603;48.918;8.980;2023-05-15T01:04:50;9.50;;;4.40;;
5167;SDS011;2603;48.918;8.980;2023-05-15T01:07:18;9.60;;;4.63;;
5167;SDS011;2603;48.918;8.980;2023-05-15T01:09:44;7.93;;;5.13;;
5167;SDS011;2603;48.918;8.980;2023-05-15T01:12:13;8.10;;;5.07;;
5167;SDS011;2603;48.918;8.980;2023-05-15T01:14:41;6.50;;;4.57;;
5167;SDS011;2603;48.918;8.980;2023-05-15T01:17:07;7.30;;;5.03;;
5167;SDS011;2603;48.918;8.980;2023-05-15T01:19:34;19.50;;;4.63;;
5167;SDS011;2603;48.918;8.980;2023-05-15T01:22:11;10.67;;;4.57;;
5167;SDS011;2603;48.918;8.980;2023-05-15T01:25:02;7.67;;;4.57;;
5167;SDS011;2603;48.918;8.980;2023-05-15T01:27:41;7.33;;;3.97;;
5167;SDS011;2603;48.918;8.980;2023-05-15T01:30:11;6.30;;;4.10;;
5167;SDS011;2603;48.918;8.980;2023-05-15T01:32:42;7.43;;;4.07;;
5167;SDS011;2603;48.918;8.980;2023-05-15T01:35:12;7.77;;;4.20;;
5167;SDS011;2603;48.918;8.980;2023-05-15T01:37:43;6.90;;;4.70;;
5167;SDS011;2603;48.918;8.980;2023-05-15T01:40:10;7.73;;;4.50;;
5167;SDS011;2603;48.918;8.980;2023-05-15T01:42:39;12.33;;;4.07;;
5167;SDS011;2603;48.918;8.980;2023-05-15T01:45:10;6.50;;;4.33;;
5167;SDS011;2603;48.918;8.980;2023-05-15T01:47:38;8.70;;;5.60;;
5167;SDS011;2603;48.918;8.980;2023-05-15T01:50:06;13.80;;;5.40;;
5167;SDS011;2603;48.918;8.980;2023-05-15T01:52:35;8.40;;;5.10;;
5167;SDS011;2603;48.918;8.980;2023-05-15T01:55:04;9.23;;;5.87;;
5167;SDS011;2603;48.918;8.980;2023-05-15T01:57:32;7.10;;;4.97;;
5167;SDS011;2603;48.918;8.980;2023-05-15T02:00:02;16.40;;;6.10;;
5167;SDS011;2603;48.918;8.980;2023-05-15T02:02:39;7.33;;;5.10;;
5167;SDS011;2603;48.918;8.980;2023-05-15T02:05:06;7.80;;;5.90;;
5167;SDS011;2603;48.918;8.980;2023-05-15T02:07:34;6.80;;;4.70;;
5167;SDS011;2603;48.918;8.980;2023-05-15T02:10:00;6.97;;;4.57;;
5167;SDS011;2603;48.918;8.980;2023-05-15T02:12:28;9.33;;;4.80;;
5167;SDS011;2603;48.918;8.980;2023-05-15T02:14:56;6.70;;;4.40;;
5167;SDS011;2603;48.918;8.980;2023-05-15T02:17:24;7.23;;;4.63;;
5167;SDS011;2603;48.918;8.980;2023-05-15T02:19:53;6.87;;;5.40;;
5167;SDS011;2603;48.918;8.980;2023-05-15T02:22:20;7.23;;;4.90;;
5167;SDS011;2603;48.918;8.980;2023-05-15T02:24:46;9.17;;;4.97;;
5167;SDS011;2603;48.918;8.980;2023-05-15T02:27:16;8.63;;;4.87;;
5167;SDS011;2603;48.918;8.980;2023-05-15T02:32:45;6.97;;;5.53;;
5167;SDS011;2603;48.918;8.980;2023-05-15T02:35:17;8.03;;;5.27;;
5167;SDS011;2603;48.918;8.980;2023-05-15T02:37:48;6.90;;;5.10;;
5167;SDS011;2603;48.918;8.980;2023-05-15T02:40:17;12.00;;;4.80;;
5167;SDS011;2603;48.918;8.980;2023-05-15T02:42:44;7.73;;;5.23;;
5167;SDS011;2603;48.918;8.980;2023-05-15T02:45:11;6.40;;;4.80;;
5167;SDS011;2603;48.918;8.980;2023-05-15T02:47:38;8.13;;;5.60;;
5167;SDS011;2603;48.918;8.980;2023-05-15T02:50:07;7.80;;;4.43;;
5167;SDS011;2603;48.918;8.980;2023-05-15T02:52:35;14.13;;;4.03;;
5167;SDS011;2603;48.918;8.980;2023-05-15T02:55:01;10.20;;;7.10;;
5167;SDS011;2603;48.918;8.980;2023-05-15T02:57:28;6.80;;;4.97;;
5167;SDS011;2603;48.918;8.980;2023-05-15T02:59:55;6.83;;;5.13;;
5167;SDS011;2603;48.918;8.980;2023-05-15T03:02:22;10.23;;;4.90;;
5167;SDS011;2603;48.918;8.980;2023-05-15T03:04:48;5.43;;;4.03;;
5167;SDS011;2603;48.918;8.980;2023-05-15T03:07:16;7.40;;;4.80;;
5167;SDS011;2603;48.918;8.980;2023-05-15T03:09:43;6.20;;;4.30;;
5167;SDS011;2603;48.918;8.980;2023-05-15T03:12:10;6.00;;;4.73;;
5167;SDS011;2603;48.918;8.980;2023-05-15T03:14:36;5.30;;;4.00;;
5167;SDS011;2603;48.918;8.980;2023-05-15T03:17:03;5.17;;;3.70;;
5167;SDS011;2603;48.918;8.980;2023-05-15T03:19:30;8.30;;;4.10;;
5167;SDS011;2603;48.918;8.980;2023-05-15T03:21:56;5.40;;;4.10;;
5167;SDS011;2603;48.918;8.980;2023-05-15T03:24:24;4.73;;;4.03;;
5167;SDS011;2603;48.918;8.980;2023-05-15T03:26:51;5.90;;;4.30;;
5167;SDS011;2603;48.918;8.980;2023-05-15T03:29:17;5.87;;;4.37;;
5167;SDS011;2603;48.918;8.980;2023-05-15T03:31:44;6.87;;;4.63;;
5167;SDS011;2603;48.918;8.980;2023-05-15T03:34:10;6.37;;;4.73;;
5167;SDS011;2603;48.918;8.980;2023-05-15T03:36:37;7.50;;;4.80;;
5167;SDS011;2603;48.918;8.980;2023-05-15T03:39:03;6.20;;;4.23;;
5167;SDS011;2603;48.918;8.980;2023-05-15T03:41:31;6.67;;;4.17;;
5167;SDS011;2603;48.918;8.980;2023-05-15T03:43:58;6.73;;;5.17;;
5167;SDS011;2603;48.918;8.980;2023-05-15T03:46:25;9.03;;;4.80;;
5167;SDS011;2603;48.918;8.980;2023-05-15T03:48:51;6.87;;;4.50;;
5167;SDS011;2603;48.918;8.980;2023-05-15T03:51:20;8.30;;;4.67;;
5167;SDS011;2603;48.918;8.980;2023-05-15T03:53:46;6.20;;;4.40;;
5167;SDS011;2603;48.918;8.980;2023-05-15T03:56:13;6.40;;;4.63;;
5167;SDS011;2603;48.918;8.980;2023-05-15T03:58:41;6.53;;;4.60;;
5167;SDS011;2603;48.918;8.980;2023-05-15T04:01:07;9.70;;;5.60;;
5167;SDS011;2603;48.918;8.980;2023-05-15T04:03:34;8.27;;;5.00;;
5167;SDS011;2603;48.918;8.980;2023-05-15T04:06:00;6.10;;;4.90;;
5167;SDS011;2603;48.918;8.980;2023-05-15T04:08:27;7.40;;;4.90;;
5167;SDS011;2603;48.918;8.980;2023-05-15T04:10:53;7.33;;;5.47;;
5167;SDS011;2603;48.918;8.980;2023-05-15T04:13:20;8.77;;;4.97;;
5167;SDS011;2603;48.918;8.980;2023-05-15T04:15:48;8.87;;;5.23;;
5167;SDS011;2603;48.918;8.980;2023-05-15T04:18:14;7.23;;;4.87;;
5167;SDS011;2603;48.918;8.980;2023-05-15T04:20:41;10.60;;;5.37;;
5167;SDS011;2603;48.918;8.980;2023-05-15T04:23:07;6.83;;;4.90;;
5167;SDS011;2603;48.918;8.980;2023-05-15T04:25:34;7.50;;;4.73;;
5167;SDS011;2603;48.918;8.980;2023-05-15T04:28:00;8.40;;;5.10;;
5167;SDS011;2603;48.918;8.980;2023-05-15T04:30:27;10.03;;;4.90;;
5167;SDS011;2603;48.918;8.980;2023-05-15T04:32:55;9.83;;;5.30;;
5167;SDS011;2603;48.918;8.980;2023-05-15T04:35:21;8.17;;;4.60;;
5167;SDS011;2603;48.918;8.980;2023-05-15T04:37:48;5.60;;;4.60;;
5167;SDS011;2603;48.918;8.980;2023-05-15T04:40:14;6.83;;;4.87;;
5167;SDS011;2603;48.918;8.980;2023-05-15T04:42:41;6.40;;;3.80;;
5167;SDS011;2603;48.918;8.980;2023-05-15T04:45:08;5.67;;;4.63;;
5167;SDS011;2603;48.918;8.980;2023-05-15T04:47:35;7.70;;;4.97;;
5167;SDS011;2603;48.918;8.980;2023-05-15T04:50:03;6.67;;;5.10;;
5167;SDS011;2603;48.918;8.980;2023-05-15T04:52:30;6.73;;;5.07;;
5167;SDS011;2603;48.918;8.980;2023-05-15T04:54:57;8.80;;;5.80;;
5167;SDS011;2603;48.918;8.980;2023-05-15T04:57:23;11.43;;;5.20;;
5167;SDS011;2603;48.918;8.980;2023-05-15T04:59:50;7.20;;;5.13;;
5167;SDS011;2603;48.918;8.980;2023-05-15T05:02:18;7.10;;;4.77;;
5167;SDS011;2603;48.918;8.980;2023-05-15T05:04:45;7.23;;;4.87;;
5167;SDS011;2603;48.918;8.980;2023-05-15T05:07:14;8.33;;;4.77;;
5167;SDS011;2603;48.918;8.980;2023-05-15T05:09:40;7.50;;;5.70;;
5167;SDS011;2603;48.918;8.980;2023-05-15T05:12:07;9.33;;;5.30;;
5167;SDS011;2603;48.918;8.980;2023-05-15T05:14:34;5.50;;;3.80;;
5167;SDS011;2603;48.918;8.980;2023-05-15T05:17:01;4.70;;;3.90;;
5167;SDS011;2603;48.918;8.980;2023-05-15T05:19:27;7.87;;;4.53;;
5167;SDS011;2603;48.918;8.980;2023-05-15T05:21:54;5.17;;;4.13;;
5167;SDS011;2603;48.918;8.980;2023-05-15T05:24:23;4.70;;;3.63;;
5167;SDS011;2603;48.918;8.980;2023-05-15T05:26:50;6.13;;;4.33;;
5167;SDS011;2603;48.918;8.980;2023-05-15T05:29:17;3.90;;;3.27;;
5167;SDS011;2603;48.918;8.980;2023-05-15T05:31:44;6.20;;;4.10;;
5167;SDS011;2603;48.918;8.980;2023-05-15T05:34:11;6.33;;;3.90;;
5167;SDS011;2603;48.918;8.980;2023-05-15T05:36:38;6.70;;;4.30;;
5167;SDS011;2603;48.918;8.980;2023-05-15T05:39:04;6.43;;;4.03;;
5167;SDS011;2603;48.918;8.980;2023-05-15T05:41:32;7.17;;;4.40;;
5167;SDS011;2603;48.918;8.980;2023-05-15T05:43:59;5.47;;;4.17;;
5167;SDS011;2603;48.918;8.980;2023-05-15T05:46:26;6.53;;;4.13;;
5167;SDS011;2603;48.918;8.980;2023-05-15T05:48:53;4.80;;;3.50;;
5167;SDS011;2603;48.918;8.980;2023-05-15T05:51:19;9.40;;;5.70;;
5167;SDS011;2603;48.918;8.980;2023-05-15T05:53:46;9.13;;;5.90;;
5167;SDS011;2603;48.918;8.980;2023-05-15T05:56:13;10.33;;;4.67;;
5167;SDS011;2603;48.918;8.980;2023-05-15T05:58:41;5.33;;;3.80;;
5167;SDS011;2603;48.918;8.980;2023-05-15T06:01:08;5.90;;;3.90;;
5167;SDS011;2603;48.918;8.980;2023-05-15T06:03:34;5.43;;;3.13;;
5167;SDS011;2603;48.918;8.980;2023-05-15T06:06:01;5.30;;;3.70;;
5167;SDS011;2603;48.918;8.980;2023-05-15T06:08:28;5.50;;;4.13;;
5167;SDS011;2603;48.918;8.980;2023-05-15T06:10:55;4.40;;;3.63;;
5167;SDS011;2603;48.918;8.980;2023-05-15T06:13:22;5.67;;;3.50;;
5167;SDS011;2603;48.918;8.980;2023-05-15T06:15:50;5.03;;;3.43;;
5167;SDS011;2603;48.918;8.980;2023-05-15T06:18:17;3.73;;;2.90;;
5167;SDS011;2603;48.918;8.980;2023-05-15T06:20:43;7.53;;;4.73;;
5167;SDS011;2603;48.918;8.980;2023-05-15T06:23:10;4.97;;;3.10;;
5167;SDS011;2603;48.918;8.980;2023-05-15T06:25:37;5.73;;;3.87;;
5167;SDS011;2603;48.918;8.980;2023-05-15T06:28:04;5.50;;;3.40;;
5167;SDS011;2603;48.918;8.980;2023-05-15T06:30:30;8.40;;;2.60;;
5167;SDS011;2603;48.918;8.980;2023-05-15T06:32:58;5.73;;;3.90;;
5167;SDS011;2603;48.918;8.980;2023-05-15T06:35:25;4.03;;;2.90;;
5167;SDS011;2603;48.918;8.980;2023-05-15T06:37:51;4.80;;;2.87;;
5167;SDS011;2603;48.918;8.980;2023-05-15T06:40:19;3.57;;;3.00;;
5167;SDS011;2603;48.918;8.980;2023-05-15T06:42:45;6.60;;;3.33;;
5167;SDS011;2603;48.918;8.980;2023-05-15T06:45:12;10.03;;;3.20;;
5167;SDS011;2603;48.918;8.980;2023-05-15T06:47:38;4.63;;;2.70;;
5167;SDS011;2603;48.918;8.980;2023-05-15T06:50:07;5.50;;;3.20;;
5167;SDS011;2603;48.918;8.980;2023-05-15T06:52:34;7.03;;;3.30;;
5167;SDS011;2603;48.918;8.980;2023-05-15T06:55:01;5.40;;;3.13;;
5167;SDS011;2603;48.918;8.980;2023-05-15T06:57:27;4.73;;;3.50;;
5167;SDS011;2603;48.918;8.980;2023-05-15T06:59:54;11.23;;;2.53;;
5167;SDS011;2603;48.918;8.980;2023-05-15T07:02:20;7.40;;;2.70;;
5167;SDS011;2603;48.918;8.980;2023-05-15T07:04:47;10.67;;;3.10;;
5167;SDS011;2603;48.918;8.980;2023-05-15T07:07:15;3.83;;;2.87;;
5167;SDS011;2603;48.918;8.980;2023-05-15T07:09:42;2.80;;;2.13;;
5167;SDS011;2603;48.918;8.980;2023-05-15T07:12:12;3.93;;;2.33;;
5167;SDS011;2603;48.918;8.980;2023-05-15T07:14:38;3.03;;;2.50;;
5167;SDS011;2603;48.918;8.980;2023-05-15T07:17:05;3.97;;;2.70;;
5167;SDS011;2603;48.918;8.980;2023-05-15T07:19:31;6.00;;;2.30;;
5167;SDS011;2603;48.918;8.980;2023-05-15T07:21:58;4.27;;;2.27;;
5167;SDS011;2603;48.918;8.980;2023-05-15T07:24:26;3.83;;;2.40;;
5167;SDS011;2603;48.918;8.980;2023-05-15T07:26:52;3.23;;;2.30;;
5167;SDS011;2603;48.918;8.980;2023-05-15T07:29:21;8.00;;;2.10;;
5167;SDS011;2603;48.918;8.980;2023-05-15T07:31:47;4.70;;;2.37;;
5167;SDS011;2603;48.918;8.980;2023-05-15T07:34:14;5.40;;;2.50;;
5167;SDS011;2603;48.918;8.980;2023-05-15T07:36:40;2.73;;;2.07;;
5167;SDS011;2603;48.918;8.980;2023-05-15T07:39:07;3.80;;;2.73;;
5167;SDS011;2603;48.918;8.980;2023-05-15T07:41:35;6.83;;;2.40;;
5167;SDS011;2603;48.918;8.980;2023-05-15T07:44:01;2.60;;;2.07;;
5167;SDS011;2603;48.918;8.980;2023-05-15T07:46:27;4.00;;;2.40;;
5167;SDS011;2603;48.918;8.980;2023-05-15T07:48:54;5.10;;;2.70;;
5167;SDS011;2603;48.918;8.980;2023-05-15T07:51:21;4.43;;;2.77;;
5167;SDS011;2603;48.918;8.980;2023-05-15T07:53:47;3.30;;;2.30;;
5167;SDS011;2603;48.918;8.980;2023-05-15T07:56:14;7.80;;;2.63;;
5167;SDS011;2603;48.918;8.980;2023-05-15T07:58:42;3.53;;;2.33;;
5167;SDS011;2603;48.918;8.980;2023-05-15T08:01:08;7.20;;;2.90;;
5167;SDS011;2603;48.918;8.980;2023-05-15T08:03:35;4.97;;;2.20;;
5167;SDS011;2603;48.918;8.980;2023-05-15T08:06:04;3.40;;;2.70;;
5167;SDS011;2603;48.918;8.980;2023-05-15T08:08:32;4.50;;;2.00;;
5167;SDS011;2603;48.918;8.980;2023-05-15T08:10:58;4.30;;;2.30;;
5167;SDS011;2603;48.918;8.980;2023-05-15T08:13:25;4.23;;;1.87;;
5167;SDS011;2603;48.918;8.980;2023-05-15T08:15:54;6.90;;;2.67;;
5167;SDS011;2603;48.918;8.980;2023-05-15T08:18:20;3.27;;;2.07;;
5167;SDS011;2603;48.918;8.980;2023-05-15T08:20:47;9.30;;;3.17;;
5167;SDS011;2603;48.918;8.980;2023-05-15T08:23:14;8.77;;;2.87;;
5167;SDS011;2603;48.918;8.980;2023-05-15T08:25:40;4.77;;;2.33;;
5167;SDS011;2603;48.918;8.980;2023-05-15T08:28:07;3.77;;;2.57;;
5167;SDS011;2603;48.918;8.980;2023-05-15T08:30:33;3.93;;;2.70;;
5167;SDS011;2603;48.918;8.980;2023-05-15T08:33:02;6.90;;;2.70;;
5167;SDS011;2603;48.918;8.980;2023-05-15T08:35:28;6.40;;;3.00;;
5167;SDS011;2603;48.918;8.980;2023-05-15T08:37:56;3.00;;;2.23;;
5167;SDS011;2603;48.918;8.980;2023-05-15T08:40:22;3.63;;;2.00;;
5167;SDS011;2603;48.918;8.980;2023-05-15T08:42:54;2.80;;;1.83;;
5167;SDS011;2603;48.918;8.980;2023-05-15T08:45:23;3.00;;;2.30;;
5167;SDS011;2603;48.918;8.980;2023-05-15T08:47:51;3.20;;;2.43;;
5167;SDS011;2603;48.918;8.980;2023-05-15T08:50:19;6.03;;;2.70;;
5167;SDS011;2603;48.918;8.980;2023-05-15T08:52:46;2.60;;;2.10;;
5167;SDS011;2603;48.918;8.980;2023-05-15T08:55:14;3.67;;;2.63;;
5167;SDS011;2603;48.918;8.980;2023-05-15T08:57:41;5.07;;;2.00;;
5167;SDS011;2603;48.918;8.980;2023-05-15T09:00:09;5.47;;;2.50;;
5167;SDS011;2603;48.918;8.980;2023-05-15T09:02:38;3.20;;;2.23;;
5167;SDS011;2603;48.918;8.980;2023-05-15T09:05:06;4.60;;;2.43;;
5167;SDS011;2603;48.918;8.980;2023-05-15T09:07:36;3.90;;;2.23;;
5167;SDS011;2603;48.918;8.980;2023-05-15T09:10:04;3.13;;;2.03;;
5167;SDS011;2603;48.918;8.980;2023-05-15T09:12:31;7.67;;;2.70;;
5167;SDS011;2603;48.918;8.980;2023-05-15T09:15:08;3.10;;;2.10;;
5167;SDS011;2603;48.918;8.980;2023-05-15T09:17:35;4.97;;;2.43;;
5167;SDS011;2603;48.918;8.980;2023-05-15T09:20:02;3.80;;;2.80;;
5167;SDS011;2603;48.918;8.980;2023-05-15T09:22:32;3.30;;;2.23;;
5167;SDS011;2603;48.918;8.980;2023-05-15T09:25:01;3.07;;;2.30;;
5167;SDS011;2603;48.918;8.980;2023-05-15T09:27:28;4.20;;;2.67;;
5167;SDS011;2603;48.918;8.980;2023-05-15T09:29:54;5.60;;;2.43;;
5167;SDS011;2603;48.918;8.980;2023-05-15T09:32:33;4.63;;;2.87;;
5167;SDS011;2603;48.918;8.980;2023-05-15T09:35:01;3.07;;;2.23;;
5167;SDS011;2603;48.918;8.980;2023-05-15T09:37:28;6.50;;;2.23;;
5167;SDS011;2603;48.918;8.980;2023-05-15T09:39:56;5.80;;;2.23;;
5167;SDS011;2603;48.918;8.980;2023-05-15T09:42:34;5.70;;;2.20;;
5167;SDS011;2603;48.918;8.980;2023-05-15T09:45:01;4.97;;;2.70;;
5167;SDS011;2603;48.918;8.980;2023-05-15T09:47:28;4.67;;;2.30;;
5167;SDS011;2603;48.918;8.980;2023-05-15T09:49:55;13.67;;;2.67;;
5167;SDS011;2603;48.918;8.980;2023-05-15T09:52:21;2.93;;;2.10;;
5167;SDS011;2603;48.918;8.980;2023-05-15T09:54:48;4.07;;;2.43;;
5167;SDS011;2603;48.918;8.980;2023-05-15T09:57:19;5.03;;;2.60;;
5167;SDS011;2603;48.918;8.980;2023-05-15T09:59:47;3.00;;;2.07;;
5167;SDS011;2603;48.918;8.980;2023-05-15T10:02:18;5.40;;;2.33;;
5167;SDS011;2603;48.918;8.980;2023-05-15T10:04:52;10.40;;;1.80;;
5167;SDS011;2603;48.918;8.980;2023-05-15T10:07:25;2.73;;;2.33;;
5167;SDS011;2603;48.918;8.980;2023-05-15T10:09:53;2.57;;;1.70;;
5167;SDS011;2603;48.918;8.980;2023-05-15T10:12:21;5.80;;;2.00;;
5167;SDS011;2603;48.918;8.980;2023-05-15T10:14:49;6.77;;;3.10;;
5167;SDS011;2603;48.918;8.980;2023-05-15T10:17:16;5.17;;;2.03;;
5167;SDS011;2603;48.918;8.980;2023-05-15T10:19:43;5.00;;;1.67;;
5167;SDS011;2603;48.918;8.980;2023-05-15T10:22:09;4.00;;;2.00;;
5167;SDS011;2603;48.918;8.980;2023-05-15T10:24:36;3.63;;;1.80;;
5167;SDS011;2603;48.918;8.980;2023-05-15T10:27:04;3.90;;;1.80;;
5167;SDS011;2603;48.918;8.980;2023-05-15T10:29:32;4.23;;;2.23;;
5167;SDS011;2603;48.918;8.980;2023-05-15T10:31:59;9.97;;;2.30;;
5167;SDS011;2603;48.918;8.980;2023-05-15T10:34:27;5.23;;;1.90;;
5167;SDS011;2603;48.918;8.980;2023-05-15T10:36:54;4.17;;;2.80;;
5167;SDS011;2603;48.918;8.980;2023-05-15T10:39:21;3.23;;;1.63;;
5167;SDS011;2603;48.918;8.980;2023-05-15T10:41:49;2.40;;;1.63;;
5167;SDS011;2603;48.918;8.980;2023-05-15T10:44:16;3.33;;;1.70;;
5167;SDS011;2603;48.918;8.980;2023-05-15T10:46:44;4.27;;;1.67;;
5167;SDS011;2603;48.918;8.980;2023-05-15T10:49:11;3.90;;;2.10;;
5167;SDS011;2603;48.918;8.980;2023-05-15T10:51:38;3.20;;;1.60;;
5167;SDS011;2603;48.918;8.980;2023-05-15T10:54:07;3.33;;;1.87;;
5167;SDS011;2603;48.918;8.980;2023-05-15T10:56:37;2.47;;;1.40;;
5167;SDS011;2603;48.918;8.980;2023-05-15T10:59:04;2.77;;;1.70;;
5167;SDS011;2603;48.918;8.980;2023-05-15T11:01:32;6.43;;;2.33;;
5167;SDS011;2603;48.918;8.980;2023-05-15T11:04:07;4.50;;;2.60;;
5167;SDS011;2603;48.918;8.980;2023-05-15T11:06:35;6.20;;;2.07;;
5167;SDS011;2603;48.918;8.980;2023-05-15T11:12:00;5.27;;;1.80;;
5167;SDS011;2603;48.918;8.980;2023-05-15T11:14:27;2.87;;;1.87;;
5167;SDS011;2603;48.918;8.980;2023-05-15T11:16:58;5.73;;;2.00;;
5167;SDS011;2603;48.918;8.980;2023-05-15T11:19:32;2.70;;;2.20;;
5167;SDS011;2603;48.918;8.980;2023-05-15T11:24:46;4.17;;;2.30;;
5167;SDS011;2603;48.918;8.980;2023-05-15T11:27:15;5.53;;;2.50;;
5167;SDS011;2603;48.918;8.980;2023-05-15T11:32:44;3.97;;;2.10;;
5167;SDS011;2603;48.918;8.980;2023-05-15T11:35:18;3.20;;;2.60;;
5167;SDS011;2603;48.918;8.980;2023-05-15T11:37:47;3.93;;;2.23;;
5167;SDS011;2603;48.918;8.980;2023-05-15T11:40:18;6.33;;;2.70;;
5167;SDS011;2603;48.918;8.980;2023-05-15T11:42:57;2.13;;;1.87;;
5167;SDS011;2603;48.918;8.980;2023-05-15T11:45:30;3.57;;;2.30;;
5167;SDS011;2603;48.918;8.980;2023-05-15T11:47:59;3.60;;;2.00;;
5167;SDS011;2603;48.918;8.980;2023-05-15T11:50:28;2.50;;;2.00;;
5167;SDS011;2603;48.918;8.980;2023-05-15T11:52:55;4.07;;;2.07;;
5167;SDS011;2603;48.918;8.980;2023-05-15T11:55:22;4.03;;;2.53;;
5167;SDS011;2603;48.918;8.980;2023-05-15T11:57:50;4.47;;;2.03;;
5167;SDS011;2603;48.918;8.980;2023-05-15T12:00:16;2.67;;;1.90;;
5167;SDS011;2603;48.918;8.980;2023-05-15T12:02:43;7.10;;;2.13;;
5167;SDS011;2603;48.918;8.980;2023-05-15T12:05:10;8.90;;;2.73;;
5167;SDS011;2603;48.918;8.980;2023-05-15T12:07:38;3.43;;;1.93;;
5167;SDS011;2603;48.918;8.980;2023-05-15T12:10:08;4.20;;;2.00;;
5167;SDS011;2603;48.918;8.980;2023-05-15T12:12:37;3.30;;;2.13;;
5167;SDS011;2603;48.918;8.980;2023-05-15T12:15:05;3.47;;;2.13;;
5167;SDS011;2603;48.918;8.980;2023-05-15T12:17:35;3.80;;;2.57;;
5167;SDS011;2603;48.918;8.980;2023-05-15T12:20:02;3.93;;;2.63;;
5167;SDS011;2603;48.918;8.980;2023-05-15T12:22:34;4.20;;;1.83;;
5167;SDS011;2603;48.918;8.980;2023-05-15T12:25:02;16.03;;;1.87;;
5167;SDS011;2603;48.918;8.980;2023-05-15T12:27:30;3.00;;;1.90;;
5167;SDS011;2603;48.918;8.980;2023-05-15T12:29:58;2.27;;;1.47;;
5167;SDS011;2603;48.918;8.980;2023-05-15T12:32:24;3.57;;;2.10;;
5167;SDS011;2603;48.918;8.980;2023-05-15T12:34:51;4.77;;;1.90;;
5167;SDS011;2603;48.918;8.980;2023-05-15T12:37:18;2.80;;;1.80;;
5167;SDS011;2603;48.918;8.980;2023-05-15T12:39:49;6.90;;;2.17;;
5167;SDS011;2603;48.918;8.980;2023-05-15T12:42:18;5.27;;;2.67;;
5167;SDS011;2603;48.918;8.980;2023-05-15T12:44:45;7.60;;;2.67;;
5167;SDS011;2603;48.918;8.980;2023-05-15T12:47:19;3.90;;;2.17;;
5167;SDS011;2603;48.918;8.980;2023-05-15T12:49:47;2.97;;;1.80;;
5167;SDS011;2603;48.918;8.980;2023-05-15T12:52:14;8.73;;;2.00;;
5167;SDS011;2603;48.918;8.980;2023-05-15T12:54:40;3.07;;;1.50;;
5167;SDS011;2603;48.918;8.980;2023-05-15T12:57:07;7.80;;;1.97;;
5167;SDS011;2603;48.918;8.980;2023-05-15T12:59:35;2.93;;;1.60;;
5167;SDS011;2603;48.918;8.980;2023-05-15T13:02:04;2.27;;;1.60;;
5167;SDS011;2603;48.918;8.980;2023-05-15T13:04:34;2.07;;;1.40;;
5167;SDS011;2603;48.918;8.980;2023-05-15T13:07:00;4.23;;;2.00;;
5167;SDS011;2603;48.918;8.980;2023-05-15T13:09:28;4.63;;;1.70;;
5167;SDS011;2603;48.918;8.980;2023-05-15T13:11:55;2.47;;;1.57;;
5167;SDS011;2603;48.918;8.980;2023-05-15T13:14:22;4.50;;;1.80;;
5167;SDS011;2603;48.918;8.980;2023-05-15T13:16:57;2.50;;;1.60;;
5167;SDS011;2603;48.918;8.980;2023-05-15T13:19:24;3.87;;;1.73;;
5167;SDS011;2603;48.918;8.980;2023-05-15T13:21:51;4.13;;;1.87;;
5167;SDS011;2603;48.918;8.980;2023-05-15T13:24:18;6.20;;;2.00;;
5167;SDS011;2603;48.918;8.980;2023-05-15T13:26:44;2.80;;;1.90;;
5167;SDS011;2603;48.918;8.980;2023-05-15T13:29:11;4.33;;;2.40;;
5167;SDS011;2603;48.918;8.980;2023-05-15T13:31:37;3.50;;;2.60;;
5167;SDS011;2603;48.918;8.980;2023-05-15T13:34:05;10.50;;;3.00;;
5167;SDS011;2603;48.918;8.980;2023-05-15T13:36:32;2.90;;;1.93;;
5167;SDS011;2603;48.918;8.980;2023-05-15T13:38:58;5.60;;;2.40;;
5167;SDS011;2603;48.918;8.980;2023-05-15T13:41:25;4.63;;;2.73;;
5167;SDS011;2603;48.918;8.980;2023-05-15T13:43:51;2.93;;;2.20;;
5167;SDS011;2603;48.918;8.980;2023-05-15T13:46:18;7.60;;;2.20;;
5167;SDS011;2603;48.918;8.980;2023-05-15T13:48:44;8.43;;;2.30;;
5167;SDS011;2603;48.918;8.980;2023-05-15T13:51:12;2.63;;;1.60;;
5167;SDS011;2603;48.918;8.980;2023-05-15T13:53:39;4.63;;;2.00;;
5167;SDS011;2603;48.918;8.980;2023-05-15T13:56:05;7.63;;;2.10;;
5167;SDS011;2603;48.918;8.980;2023-05-15T13:58:32;2.67;;;1.70;;
5167;SDS011;2603;48.918;8.980;2023-05-15T14:01:01;3.80;;;1.60;;
5167;SDS011;2603;48.918;8.980;2023-05-15T14:03:30;3.47;;;2.00;;
5167;SDS011;2603;48.918;8.980;2023-05-15T14:05:56;2.90;;;1.40;;
5167;SDS011;2603;48.918;8.980;2023-05-15T14:08:24;2.23;;;1.40;;
5167;SDS011;2603;48.918;8.980;2023-05-15T14:10:51;2.27;;;1.67;;
5167;SDS011;2603;48.918;8.980;2023-05-15T14:13:17;2.33;;;1.90;;
5167;SDS011;2603;48.918;8.980;2023-05-15T14:15:44;3.57;;;2.07;;
5167;SDS011;2603;48.918;8.980;2023-05-15T14:18:10;3.70;;;2.47;;
5167;SDS011;2603;48.918;8.980;2023-05-15T14:20:37;4.10;;;2.70;;
5167;SDS011;2603;48.918;8.980;2023-05-15T14:23:03;6.60;;;2.97;;
5167;SDS011;2603;48.918;8.980;2023-05-15T14:25:31;2.33;;;2.13;;
5167;SDS011;2603;48.918;8.980;2023-05-15T14:27:58;9.63;;;3.30;;
5167;SDS011;2603;48.918;8.980;2023-05-15T14:30:24;8.60;;;3.60;;
5167;SDS011;2603;48.918;8.980;2023-05-15T14:32:51;5.50;;;3.17;;
5167;SDS011;2603;48.918;8.980;2023-05-15T14:35:17;4.00;;;2.77;;
5167;SDS011;2603;48.918;8.980;2023-05-15T14:37:44;4.97;;;2.70;;
5167;SDS011;2603;48.918;8.980;2023-05-15T14:40:11;3.80;;;2.90;;
5167;SDS011;2603;48.918;8.980;2023-05-15T14:42:39;4.87;;;3.27;;
5167;SDS011;2603;48.918;8.980;2023-05-15T14:45:06;13.00;;;4.93;;
5167;SDS011;2603;48.918;8.980;2023-05-15T14:47:33;5.93;;;4.57;;
5167;SDS011;2603;48.918;8.980;2023-05-15T14:49:59;9.70;;;4.70;;
5167;SDS011;2603;48.918;8.980;2023-05-15T14:52:26;10.70;;;4.20;;
5167;SDS011;2603;48.918;8.980;2023-05-15T14:54:52;8.33;;;5.07;;
5167;SDS011;2603;48.918;8.980;2023-05-15T14:57:19;7.10;;;4.43;;
5167;SDS011;2603;48.918;8.980;2023-05-15T14:59:47;5.43;;;3.40;;
5167;SDS011;2603;48.918;8.980;2023-05-15T15:02:14;6.70;;;3.30;;
5167;SDS011;2603;48.918;8.980;2023-05-15T15:04:40;4.87;;;2.43;;
5167;SDS011;2603;48.918;8.980;2023-05-15T15:07:09;6.00;;;3.37;;
5167;SDS011;2603;48.918;8.980;2023-05-15T15:09:36;3.97;;;2.67;;
5167;SDS011;2603;48.918;8.980;2023-05-15T15:12:02;6.90;;;3.30;;
5167;SDS011;2603;48.918;8.980;2023-05-15T15:14:29;6.27;;;4.40;;
5167;SDS011;2603;48.918;8.980;2023-05-15T15:16:57;5.10;;;4.00;;
5167;SDS011;2603;48.918;8.980;2023-05-15T15:19:24;7.57;;;4.60;;
5167;SDS011;2603;48.918;8.980;2023-05-15T15:21:50;7.90;;;4.50;;
5167;SDS011;2603;48.918;8.980;2023-05-15T15:24:17;7.53;;;5.30;;
5167;SDS011;2603;48.918;8.980;2023-05-15T15:26:43;7.33;;;4.10;;
5167;SDS011;2603;48.918;8.980;2023-05-15T15:29:10;8.93;;;4.70;;